createdAt,value
2023-05-14T00:02:55.498Z,11.27
2023-05-14T00:08:05.564Z,11.26
2023-05-14T00:13:15.246Z,11.25
2023-05-14T00:18:25.108Z,11.26
2023-05-14T00:23:36.783Z,11.17
2023-05-14T00:28:46.620Z,11.05
2023-05-14T00:33:56.230Z,10.98
2023-05-14T00:39:05.981Z,10.89
2023-05-14T00:44:16.148Z,10.82
2023-05-14T00:49:26.790Z,10.77
2023-05-14T00:54:37.655Z,10.73
2023-05-14T00:59:47.542Z,10.65
2023-05-14T01:04:58.508Z,10.53
2023-05-14T01:10:16.495Z,10.43
2023-05-14T01:15:30.427Z,10.34
2023-05-14T01:20:40.219Z,10.23
2023-05-14T01:25:49.997Z,10.14
2023-05-14T01:31:08.404Z,10.03
2023-05-14T01:36:18.678Z,9.90
2023-05-14T01:41:31.185Z,9.84
2023-05-14T01:46:41.274Z,9.76
2023-05-14T01:51:51.412Z,9.74
2023-05-14T01:57:01.318Z,9.66
2023-05-14T02:02:10.963Z,9.65
2023-05-14T02:07:21.087Z,9.67
2023-05-14T02:12:30.864Z,9.69
2023-05-14T02:17:40.550Z,9.65
2023-05-14T02:22:50.369Z,9.62
2023-05-14T02:27:59.851Z,9.61
2023-05-14T02:33:10.060Z,9.58
2023-05-14T02:38:20.128Z,9.56
2023-05-14T02:43:30.129Z,9.51
2023-05-14T02:48:40.024Z,9.44
2023-05-14T02:53:49.877Z,9.37
2023-05-14T02:58:59.436Z,9.33
2023-05-14T03:04:10.113Z,9.27
2023-05-14T03:09:20.234Z,9.27
2023-05-14T03:14:29.936Z,9.27
2023-05-14T03:19:39.640Z,9.30
2023-05-14T03:24:49.748Z,9.35
2023-05-14T03:29:59.489Z,9.53
2023-05-14T03:35:10.948Z,9.74
2023-05-14T03:40:21.827Z,9.75
2023-05-14T03:45:31.923Z,9.73
2023-05-14T03:50:41.949Z,9.73
2023-05-14T03:55:51.864Z,9.78
2023-05-14T04:01:01.819Z,9.81
2023-05-14T04:06:12.351Z,9.89
2023-05-14T04:11:22.183Z,10.04
2023-05-14T04:16:32.280Z,10.15
2023-05-14T04:21:41.958Z,10.34
2023-05-14T04:26:51.829Z,10.57
2023-05-14T04:32:01.598Z,10.76
2023-05-14T04:37:12.186Z,10.99
2023-05-14T04:42:21.842Z,11.26
2023-05-14T04:47:31.957Z,11.53
2023-05-14T04:52:42.114Z,11.78
2023-05-14T04:57:52.024Z,12.01
2023-05-14T05:03:02.246Z,12.26
2023-05-14T05:08:12.863Z,12.48
2023-05-14T05:13:22.657Z,12.69
2023-05-14T05:18:32.637Z,12.91
2023-05-14T05:23:42.286Z,13.09
2023-05-14T05:28:51.938Z,13.31
2023-05-14T05:34:02.621Z,13.56
2023-05-14T05:39:12.475Z,13.78
2023-05-14T05:44:22.743Z,14.05
2023-05-14T05:49:32.411Z,14.29
2023-05-14T05:54:42.029Z,14.56
2023-05-14T05:59:51.617Z,14.88
2023-05-14T06:05:01.321Z,15.19
2023-05-14T06:10:13.060Z,15.42
2023-05-14T06:15:24.700Z,15.68
2023-05-14T06:20:34.651Z,15.98
2023-05-14T06:25:44.653Z,16.24
2023-05-14T06:30:56.206Z,16.49
2023-05-14T06:36:08.348Z,16.78
2023-05-14T06:41:18.540Z,17.15
2023-05-14T06:46:28.438Z,17.45
2023-05-14T06:51:39.340Z,17.74
2023-05-14T06:56:48.946Z,17.95
2023-05-14T07:01:58.758Z,18.22
2023-05-14T07:07:11.015Z,18.57
2023-05-14T07:12:20.777Z,18.93
2023-05-14T07:17:30.915Z,19.18
2023-05-14T07:22:40.674Z,19.48
2023-05-14T07:27:50.497Z,19.73
2023-05-14T07:33:00.292Z,20.07
2023-05-14T07:38:10.095Z,20.38
2023-05-14T07:43:19.561Z,20.64
2023-05-14T07:48:29.323Z,20.90
2023-05-14T07:53:39.080Z,21.21
2023-05-14T07:58:49.074Z,21.55
2023-05-14T08:03:59.267Z,21.77
2023-05-14T08:09:09.017Z,21.98
2023-05-14T08:14:18.574Z,22.15
2023-05-14T08:19:28.912Z,22.35
2023-05-14T08:24:39.211Z,22.60
2023-05-14T08:29:49.078Z,22.82
2023-05-14T08:34:58.934Z,22.98
2023-05-14T08:40:10.970Z,22.98
2023-05-14T08:45:26.441Z,23.12
2023-05-14T08:50:36.309Z,23.27
2023-05-14T08:55:48.328Z,23.38
2023-05-14T09:00:59.339Z,23.62
2023-05-14T09:06:10.581Z,23.72
2023-05-14T09:11:20.678Z,23.92
2023-05-14T09:16:31.461Z,24.04
2023-05-14T09:21:42.132Z,24.12
2023-05-14T09:26:56.485Z,24.18
2023-05-14T09:32:08.607Z,24.14
2023-05-14T09:37:18.237Z,23.94
2023-05-14T09:42:28.105Z,23.62
2023-05-14T09:47:37.878Z,23.95
2023-05-14T09:52:47.536Z,24.22
2023-05-14T09:57:57.444Z,24.58
2023-05-14T10:03:10.622Z,24.15
2023-05-14T10:08:28.729Z,24.23
2023-05-14T10:13:48.257Z,24.01
2023-05-14T10:19:07.532Z,24.46
2023-05-14T10:24:17.922Z,24.80
2023-05-14T10:29:37.834Z,24.87
2023-05-14T10:34:48.597Z,24.95
2023-05-14T10:40:03.232Z,25.09
2023-05-14T10:45:16.612Z,25.21
2023-05-14T10:50:26.486Z,25.40
2023-05-14T10:55:36.751Z,25.46
2023-05-14T11:00:49.088Z,25.31
2023-05-14T11:06:01.098Z,25.42
2023-05-14T11:11:12.233Z,25.72
2023-05-14T11:16:24.417Z,25.37
2023-05-14T11:21:34.756Z,25.59
2023-05-14T11:26:44.971Z,25.81
2023-05-14T11:31:56.032Z,25.52
2023-05-14T11:37:08.993Z,25.74
2023-05-14T11:42:20.045Z,25.15
2023-05-14T11:47:30.975Z,24.63
2023-05-14T11:52:44.369Z,24.19
2023-05-14T11:57:54.600Z,23.76
2023-05-14T12:03:04.504Z,23.50
2023-05-14T12:08:28.065Z,23.46
2023-05-14T12:13:38.060Z,23.47
2023-05-14T12:18:47.853Z,23.50
2023-05-14T12:24:03.871Z,23.53
2023-05-14T12:29:16.391Z,23.48
2023-05-14T12:34:25.880Z,23.34
2023-05-14T12:39:37.228Z,23.30
2023-05-14T12:44:46.815Z,23.32
2023-05-14T12:49:56.480Z,23.51
2023-05-14T12:55:06.871Z,23.63
2023-05-14T13:00:19.412Z,23.51
2023-05-14T13:05:29.327Z,23.54
2023-05-14T13:10:39.129Z,24.16
2023-05-14T13:15:49.242Z,24.60
2023-05-14T13:20:59.066Z,24.54
2023-05-14T13:26:08.688Z,24.65
2023-05-14T13:31:18.895Z,24.88
2023-05-14T13:36:28.973Z,24.72
2023-05-14T13:41:39.521Z,24.39
2023-05-14T13:46:49.160Z,24.70
2023-05-14T13:51:58.752Z,25.22
2023-05-14T13:57:09.295Z,25.58
2023-05-14T14:02:19.900Z,25.82
2023-05-14T14:07:29.593Z,25.84
2023-05-14T14:12:39.486Z,25.62
2023-05-14T14:17:49.499Z,25.67
2023-05-14T14:22:59.494Z,25.66
2023-05-14T14:28:09.228Z,25.77
2023-05-14T14:33:19.029Z,25.93
2023-05-14T14:38:29.717Z,26.13
2023-05-14T14:43:40.603Z,26.33
2023-05-14T14:48:50.958Z,26.35
2023-05-14T14:54:00.692Z,26.06
2023-05-14T14:59:10.308Z,26.08
2023-05-14T15:04:19.951Z,25.89
2023-05-14T15:09:29.886Z,25.92
2023-05-14T15:14:39.838Z,25.89
2023-05-14T15:19:49.449Z,26.06
2023-05-14T15:24:59.253Z,26.02
2023-05-14T15:30:11.750Z,25.94
2023-05-14T15:35:21.416Z,26.13
2023-05-14T15:40:31.887Z,26.04
2023-05-14T15:45:41.590Z,26.23
2023-05-14T15:50:53.061Z,26.76
2023-05-14T15:56:02.862Z,27.25
2023-05-14T16:01:12.542Z,27.73
2023-05-14T16:06:22.515Z,27.91
2023-05-14T16:11:32.400Z,28.03
2023-05-14T16:16:42.917Z,28.13
2023-05-14T16:21:52.532Z,28.73
2023-05-14T16:27:02.458Z,29.33
2023-05-14T16:32:12.700Z,29.77
2023-05-14T16:37:22.779Z,29.55
2023-05-14T16:42:32.434Z,29.63
2023-05-14T16:47:42.135Z,29.08
2023-05-14T16:52:51.839Z,28.28
2023-05-14T16:58:01.446Z,28.06
2023-05-14T17:03:11.081Z,27.97
2023-05-14T17:08:20.795Z,27.46
2023-05-14T17:13:30.440Z,27.69
2023-05-14T17:18:57.250Z,28.26
2023-05-14T17:24:07.501Z,28.54
2023-05-14T17:29:17.160Z,28.29
2023-05-14T17:34:27.003Z,27.62
2023-05-14T17:39:37.024Z,27.20
2023-05-14T17:44:46.596Z,26.48
2023-05-14T17:49:56.645Z,25.60
2023-05-14T17:55:07.116Z,24.80
2023-05-14T18:00:19.372Z,24.12
2023-05-14T18:05:30.244Z,23.56
2023-05-14T18:10:40.166Z,23.04
2023-05-14T18:15:52.031Z,22.65
2023-05-14T18:21:02.174Z,22.29
2023-05-14T18:26:12.154Z,21.93
2023-05-14T18:31:21.802Z,21.59
2023-05-14T18:36:31.945Z,21.26
2023-05-14T18:41:41.557Z,20.96
2023-05-14T18:46:51.642Z,20.65
2023-05-14T18:52:01.159Z,20.28
2023-05-14T18:57:11.686Z,19.94
2023-05-14T19:02:21.783Z,19.69
2023-05-14T19:07:32.487Z,19.46
2023-05-14T19:12:42.328Z,19.22
2023-05-14T19:17:52.493Z,19.03
2023-05-14T19:23:02.301Z,18.79
2023-05-14T19:28:11.930Z,18.55
2023-05-14T19:33:21.451Z,18.37
2023-05-14T19:38:31.337Z,18.05
2023-05-14T19:43:40.937Z,17.81
2023-05-14T19:48:50.612Z,17.68
2023-05-14T19:54:00.183Z,17.52
2023-05-14T19:59:09.823Z,17.30
2023-05-14T20:04:20.066Z,17.20
2023-05-14T20:09:29.849Z,17.13
2023-05-14T20:14:41.268Z,17.04
2023-05-14T20:19:50.864Z,16.94
2023-05-14T20:25:00.907Z,16.74
2023-05-14T20:30:12.839Z,16.62
2023-05-14T20:35:23.570Z,16.60
2023-05-14T20:40:33.482Z,16.58
2023-05-14T20:45:43.764Z,16.51
2023-05-14T20:50:53.411Z,16.43
2023-05-14T20:56:03.169Z,16.28
2023-05-14T21:01:12.729Z,16.16
2023-05-14T21:06:22.493Z,16.07
2023-05-14T21:11:32.075Z,16.01
2023-05-14T21:16:42.419Z,15.93
2023-05-14T21:21:51.976Z,15.83
2023-05-14T21:27:01.753Z,15.78
2023-05-14T21:32:12.340Z,15.73
2023-05-14T21:37:22.151Z,15.74
2023-05-14T21:42:31.844Z,15.66
2023-05-14T21:47:42.473Z,15.59
2023-05-14T21:52:52.098Z,15.45
2023-05-14T21:58:02.881Z,15.39
2023-05-14T22:03:12.657Z,15.34
2023-05-14T22:08:22.574Z,15.37
2023-05-14T22:13:32.358Z,15.39
2023-05-14T22:18:42.893Z,15.35
2023-05-14T22:23:52.485Z,15.25
2023-05-14T22:29:02.842Z,15.21
2023-05-14T22:34:12.518Z,15.19
2023-05-14T22:39:22.309Z,15.12
2023-05-14T22:44:31.803Z,15.05
2023-05-14T22:49:43.182Z,14.98
2023-05-14T22:54:53.499Z,14.91
2023-05-14T23:00:04.424Z,14.86
2023-05-14T23:05:15.037Z,14.75
2023-05-14T23:10:24.948Z,14.64
2023-05-14T23:15:34.666Z,14.54
2023-05-14T23:20:44.278Z,14.48
2023-05-14T23:25:56.294Z,14.36
2023-05-14T23:31:06.182Z,14.24
2023-05-14T23:36:16.668Z,14.18
2023-05-14T23:41:26.302Z,14.09
2023-05-14T23:46:35.919Z,14.01
2023-05-14T23:51:46.292Z,13.92
2023-05-14T23:56:55.976Z,13.84
